Time;durP1;ratioP1;P1;durP2;ratioP2;P2;SDS_P1;SDS_P2;PMS_P1;PMS_P2;Temp;Humidity;BMP_temperature;BMP_pressure;BME280_temperature;BME280_humidity;BME280_pressure;Samples;Min_cycle;Max_cycle;Signal;HPM_P1;HPM_P2
2021/08/20 00:01:03;;;;;;;25.77;13.00;;;;;;;21.16;100.00;99263.39;1670168;85;20928;-59
2021/08/20 00:03:30;;;;;;;26.03;13.70;;;;;;;21.16;100.00;99254.13;1672282;85;21028;-58
2021/08/20 00:05:56;;;;;;;22.37;13.40;;;;;;;21.17;100.00;99253.83;1619542;86;21032;-58
2021/08/20 00:08:23;;;;;;;19.37;12.13;;;;;;;21.14;100.00;99267.13;1620391;86;21174;-59
2021/08/20 00:10:51;;;;;;;24.87;13.43;;;;;;;21.14;100.00;99264.47;1667785;83;21639;-59
2021/08/20 00:13:19;;;;;;;21.20;12.73;;;;;;;21.15;100.00;99254.66;1659612;85;21434;-60
2021/08/20 00:15:45;;;;;;;20.43;12.13;;;;;;;21.08;100.00;99245.69;1669469;84;20965;-58
2021/08/20 00:18:13;;;;;;;19.67;12.30;;;;;;;21.25;100.00;99248.47;1663094;85;22424;-59
2021/08/20 00:20:41;;;;;;;16.80;10.40;;;;;;;21.28;100.00;99258.52;1664491;85;21600;-59
2021/08/20 00:23:07;;;;;;;21.80;12.40;;;;;;;21.35;100.00;99266.98;1665642;85;20956;-59
2021/08/20 00:25:34;;;;;;;23.33;12.20;;;;;;;21.37;100.00;99247.08;1667073;83;20968;-60
2021/08/20 00:28:01;;;;;;;18.83;12.03;;;;;;;21.40;100.00;99247.04;1666889;83;20972;-57
2021/08/20 00:30:28;;;;;;;19.37;11.47;;;;;;;21.43;100.00;99239.08;1669260;83;21130;-59
2021/08/20 00:32:54;;;;;;;19.80;11.13;;;;;;;21.42;100.00;99253.41;1667431;85;21162;-59
2021/08/20 00:35:21;;;;;;;19.57;12.00;;;;;;;21.58;100.00;99252.97;1667241;83;20905;-60
2021/08/20 00:37:49;;;;;;;17.50;12.10;;;;;;;21.64;100.00;99248.97;1673177;83;22343;-58
2021/08/20 00:40:17;;;;;;;22.70;13.33;;;;;;;21.64;100.00;99248.42;1667354;85;21434;-59
2021/08/20 00:42:44;;;;;;;17.83;12.73;;;;;;;21.62;100.00;99243.38;1666614;84;21154;-59
2021/08/20 00:45:12;;;;;;;19.57;11.17;;;;;;;21.62;100.00;99243.38;1668469;83;21147;-60
2021/08/20 00:47:38;;;;;;;18.87;12.40;;;;;;;21.65;100.00;99249.21;1666256;85;21556;-58
2021/08/20 00:50:06;;;;;;;22.93;13.63;;;;;;;21.59;100.00;99246.63;1663417;85;21020;-59
2021/08/20 00:52:34;;;;;;;22.77;13.57;;;;;;;21.48;100.00;99241.16;1666608;85;21506;-59
2021/08/20 00:55:01;;;;;;;17.67;12.47;;;;;;;21.36;100.00;99239.39;1650954;85;21170;-59
2021/08/20 00:57:30;;;;;;;20.23;12.67;;;;;;;21.29;100.00;99242.86;1647616;85;21075;-59
2021/08/20 00:59:56;;;;;;;18.33;12.57;;;;;;;21.21;100.00;99242.14;1667383;85;21001;-58
2021/08/20 01:02:23;;;;;;;19.37;12.80;;;;;;;21.13;100.00;99239.55;1667988;85;21101;-59
2021/08/20 01:04:50;;;;;;;20.93;13.67;;;;;;;21.07;100.00;99232.73;1665951;85;21344;-59
2021/08/20 01:07:19;;;;;;;17.50;12.47;;;;;;;21.05;100.00;99239.61;1646337;86;20969;-59
2021/08/20 01:09:49;;;;;;;21.13;13.87;;;;;;;20.98;100.00;99247.62;1645418;86;21819;-60
2021/08/20 01:12:18;;;;;;;17.73;12.77;;;;;;;20.94;100.00;99242.62;1663339;85;21011;-59
2021/08/20 01:14:50;;;;;;;21.97;12.43;;;;;;;20.91;100.00;99243.98;1665854;85;21455;-59
2021/08/20 01:17:18;;;;;;;21.17;13.23;;;;;;;20.89;100.00;99246.88;1665041;85;21087;-58
2021/08/20 01:19:47;;;;;;;21.33;12.67;;;;;;;20.78;100.00;99247.23;1665672;85;21015;-57
2021/08/20 01:22:14;;;;;;;21.67;13.93;;;;;;;20.77;100.00;99243.80;1663643;85;21147;-59
2021/08/20 01:24:46;;;;;;;19.30;12.77;;;;;;;20.71;100.00;99249.39;1663878;85;21557;-58
2021/08/20 01:27:17;;;;;;;19.00;13.37;;;;;;;20.69;100.00;99244.91;1667827;83;21003;-59
2021/08/20 01:29:46;;;;;;;19.42;13.60;;;;;;;20.63;100.00;99235.66;1669318;83;21550;-58
2021/08/20 01:32:14;;;;;;;13.47;11.23;;;;;;;20.54;100.00;99232.02;1667603;83;22312;-59
2021/08/20 01:34:44;;;;;;;15.63;11.90;;;;;;;20.59;100.00;99231.19;1670903;85;21082;-59
2021/08/20 01:37:12;;;;;;;18.17;11.43;;;;;;;20.58;100.00;99230.94;1666079;85;20984;-59
2021/08/20 01:39:39;;;;;;;15.87;10.33;;;;;;;20.65;100.00;99226.13;1668714;83;21505;-57
2021/08/20 01:42:06;;;;;;;15.63;10.47;;;;;;;20.72;100.00;99220.51;1667925;83;21159;-58
2021/08/20 01:44:33;;;;;;;17.23;10.67;;;;;;;20.78;100.00;99218.88;1669668;83;21110;-59
2021/08/20 01:47:01;;;;;;;15.13;11.20;;;;;;;20.83;100.00;99210.89;1669870;83;21008;-61
2021/08/20 01:49:27;;;;;;;15.33;11.20;;;;;;;20.92;100.00;99218.27;1670052;83;21007;-60
2021/08/20 01:51:56;;;;;;;18.03;10.67;;;;;;;20.89;100.00;99220.39;1668637;83;21706;-58
2021/08/20 01:54:23;;;;;;;17.93;11.27;;;;;;;20.92;100.00;99221.71;1614066;87;21031;-59
2021/08/20 01:56:51;;;;;;;15.27;10.70;;;;;;;20.94;100.00;99223.53;1627709;86;21099;-60
2021/08/20 01:59:18;;;;;;;18.47;12.10;;;;;;;20.95;100.00;99224.32;1628774;86;21166;-60
2021/08/20 02:01:45;;;;;;;16.47;12.77;;;;;;;20.93;100.00;99227.80;1627996;86;21000;-59
2021/08/20 02:04:11;;;;;;;15.97;11.93;;;;;;;20.94;100.00;99228.83;1626964;86;21111;-60
2021/08/20 02:06:40;;;;;;;17.70;11.40;;;;;;;20.94;100.00;99221.42;1626756;86;21543;-61
2021/08/20 02:09:09;;;;;;;17.13;10.07;;;;;;;20.96;100.00;99228.03;1635568;87;21122;-60
2021/08/20 02:11:37;;;;;;;17.30;11.53;;;;;;;20.89;100.00;99224.37;1637336;87;21242;-61
2021/08/20 02:14:05;;;;;;;16.00;11.97;;;;;;;20.94;100.00;99229.38;1635802;87;21030;-59
2021/08/20 02:16:34;;;;;;;19.60;12.43;;;;;;;20.90;100.00;99232.56;1635740;86;21116;-59
2021/08/20 02:19:02;;;;;;;18.20;13.03;;;;;;;20.83;100.00;99232.62;1636738;87;21063;-60
2021/08/20 02:21:29;;;;;;;18.83;12.80;;;;;;;20.80;100.00;99234.52;1637642;87;21497;-58
2021/08/20 02:23:56;;;;;;;16.60;11.90;;;;;;;20.73;100.00;99239.33;1634624;86;21663;-60
2021/08/20 02:26:26;;;;;;;16.67;12.67;;;;;;;20.68;100.00;99244.63;1636674;87;21110;-60
2021/08/20 02:28:53;;;;;;;15.13;12.60;;;;;;;20.61;100.00;99240.98;1637360;87;21193;-60
2021/08/20 02:31:19;;;;;;;16.87;12.17;;;;;;;20.56;100.00;99242.32;1670752;85;21138;-61
2021/08/20 02:33:49;;;;;;;15.77;11.57;;;;;;;20.51;100.00;99244.47;1646998;85;21039;-61
2021/08/20 02:36:16;;;;;;;18.60;13.30;;;;;;;20.53;100.00;99241.53;1668206;85;21171;-60
2021/08/20 02:38:43;;;;;;;21.13;13.90;;;;;;;20.48;100.00;99242.33;1668261;85;21086;-60
2021/08/20 02:41:11;;;;;;;16.30;13.13;;;;;;;20.47;100.00;99242.08;1665234;85;21000;-61
2021/08/20 02:43:39;;;;;;;20.23;13.47;;;;;;;20.50;100.00;99242.89;1664623;85;21004;-58
2021/08/20 02:46:06;;;;;;;20.90;14.20;;;;;;;20.51;100.00;99241.83;1665506;85;21222;-57
2021/08/20 02:48:33;;;;;;;20.43;14.43;;;;;;;20.61;100.00;99246.28;1666802;85;22932;-60
2021/08/20 02:51:06;;;;;;;18.83;12.53;;;;;;;20.60;100.00;99252.09;1662839;85;21007;-60
2021/08/20 02:53:32;;;;;;;20.80;14.27;;;;;;;20.58;100.00;99250.27;1656118;85;21087;-58
2021/08/20 02:55:59;;;;;;;18.33;14.07;;;;;;;20.62;100.00;99253.16;1658647;85;21059;-60
2021/08/20 02:58:27;;;;;;;22.47;14.43;;;;;;;20.71;100.00;99259.45;1663117;85;21114;-61
2021/08/20 03:00:55;;;;;;;17.87;12.97;;;;;;;20.77;100.00;99258.36;1670151;81;21468;-60
2021/08/20 03:03:22;;;;;;;34.83;15.00;;;;;;;20.84;100.00;99260.17;1668381;83;21020;-60
2021/08/20 03:05:50;;;;;;;19.90;14.53;;;;;;;21.01;100.00;99255.02;1679060;84;21019;-60
2021/08/20 03:08:18;;;;;;;19.67;15.20;;;;;;;20.99;100.00;99258.49;1679532;85;22447;-59
2021/08/20 03:10:45;;;;;;;21.23;14.93;;;;;;;20.98;100.00;99262.19;1706969;83;21150;-59
2021/08/20 03:13:12;;;;;;;31.60;24.00;;;;;;;20.98;100.00;99261.65;1706310;83;21164;-61
2021/08/20 03:15:39;;;;;;;19.97;15.73;;;;;;;21.02;100.00;99263.22;1685813;83;21059;-58
2021/08/20 03:18:06;;;;;;;18.00;13.97;;;;;;;21.08;100.00;99263.45;1707979;83;21071;-58
2021/08/20 03:20:35;;;;;;;20.60;15.07;;;;;;;21.10;100.00;99250.70;1706130;83;21098;-60
2021/08/20 03:23:04;;;;;;;22.23;16.13;;;;;;;21.25;100.00;99260.39;1707072;83;21584;-62
2021/08/20 03:25:32;;;;;;;20.43;15.00;;;;;;;21.31;100.00;99261.95;1685449;83;21168;-60
2021/08/20 03:28:01;;;;;;;31.17;24.30;;;;;;;21.42;100.00;99267.45;1708349;83;21019;-59
2021/08/20 03:30:38;;;;;;;27.07;17.27;;;;;;;21.47;100.00;99275.89;1708229;83;21023;-59
2021/08/20 03:33:07;;;;;;;20.80;16.07;;;;;;;21.56;100.00;99271.58;1706229;83;21519;-60
2021/08/20 03:35:36;;;;;;;20.67;15.07;;;;;;;21.79;100.00;99272.69;1708935;82;21033;-60
2021/08/20 03:38:03;;;;;;;21.03;15.23;;;;;;;22.17;100.00;99270.19;1708143;83;21145;-58
2021/08/20 03:40:31;;;;;;;22.47;15.40;;;;;;;22.55;100.00;99271.82;1708346;82;21055;-58
2021/08/20 03:42:59;;;;;;;24.43;17.63;;;;;;;22.85;100.00;99272.48;1708840;83;21087;-60
2021/08/20 03:45:36;;;;;;;22.00;13.87;;;;;;;23.05;100.00;99288.14;1707867;83;21071;-58
2021/08/20 03:48:05;;;;;;;21.23;13.93;;;;;;;23.20;100.00;99300.95;1707260;82;21427;-58
2021/08/20 03:50:31;;;;;;;18.67;14.20;;;;;;;23.12;100.00;99304.28;1708683;83;21163;-60
2021/08/20 03:52:58;;;;;;;18.43;12.63;;;;;;;23.00;100.00;99310.04;1708738;82;20987;-60
2021/08/20 03:55:24;;;;;;;19.93;12.70;;;;;;;22.95;100.00;99317.52;1705789;82;21016;-60
2021/08/20 03:58:09;;;;;;;21.27;13.83;;;;;;;23.14;100.00;99314.07;1705051;82;22357;-60
2021/08/20 04:00:37;;;;;;;17.80;12.77;;;;;;;23.14;100.00;99306.87;1708964;83;21581;-60
2021/08/20 04:03:04;;;;;;;20.07;14.27;;;;;;;23.34;100.00;99310.33;1705459;83;21875;-60
2021/08/20 04:05:31;;;;;;;15.60;11.80;;;;;;;23.81;100.00;99306.62;1718432;82;20992;-59
2021/08/20 04:08:06;;;;;;;20.93;12.87;;;;;;;24.39;100.00;99295.41;1700323;82;21062;-59
2021/08/20 04:10:42;;;;;;;15.93;12.07;;;;;;;24.93;100.00;99288.39;1716385;82;21605;-60
2021/08/20 04:13:17;;;;;;;18.03;13.00;;;;;;;25.37;100.00;99296.73;1723542;82;20917;-58
2021/08/20 04:15:48;;;;;;;21.47;13.97;;;;;;;25.71;100.00;99293.46;1723565;82;20968;-59
2021/08/20 04:18:16;;;;;;;19.20;13.47;;;;;;;25.90;100.00;99297.27;1728915;81;21008;-61
2021/08/20 04:20:43;;;;;;;17.10;14.03;;;;;;;26.09;100.00;99296.47;1708826;82;21064;-60
2021/08/20 04:23:11;;;;;;;16.13;13.90;;;;;;;26.25;100.00;99300.83;1719810;82;20949;-60
2021/08/20 04:25:40;;;;;;;22.70;14.93;;;;;;;26.42;100.00;99296.88;1766498;80;21510;-59
2021/08/20 04:28:28;;;;;;;22.43;15.00;;;;;;;26.54;100.00;99294.18;1694284;83;21408;-59
2021/08/20 04:31:00;;;;;;;14.27;11.40;;;;;;;26.54;100.00;99276.81;1701652;83;21090;-61
2021/08/20 04:33:28;;;;;;;12.10;10.85;;;;;;;26.47;100.00;99275.92;1718676;80;20904;-60
2021/08/20 04:36:14;;;;;;;12.53;11.22;;;;;;;26.39;100.00;99282.02;1768319;80;21012;-59
2021/08/20 04:38:44;;;;;;;14.05;12.37;;;;;;;26.24;100.00;99283.80;1761773;80;20984;-58
2021/08/20 04:41:15;;;;;;;16.83;13.00;;;;;;;26.23;100.00;99284.90;1762590;80;21170;-59
2021/08/20 04:43:50;;;;;;;45.43;16.27;;;;;;;26.62;100.00;99280.81;1763430;80;21042;-58
2021/08/20 04:46:35;;;;;;;15.83;11.53;;;;;;;27.25;100.00;99275.95;1766733;80;22290;-58
2021/08/20 04:49:20;;;;;;;17.10;11.65;;;;;;;27.96;100.00;99276.79;1766989;80;20983;-58
2021/08/20 04:51:54;;;;;;;14.95;10.82;;;;;;;28.56;100.00;99281.56;1766170;80;20983;-59
2021/08/20 04:54:27;;;;;;;12.88;11.43;;;;;;;29.16;100.00;99281.65;1767173;80;22281;-60
2021/08/20 04:56:57;;;;;;;12.82;10.95;;;;;;;29.69;100.00;99280.01;1765281;80;20952;-59
2021/08/20 04:59:24;;;;;;;15.75;10.70;;;;;;;30.16;100.00;99280.14;1767460;80;21579;-60
2021/08/20 05:01:50;;;;;;;16.97;10.32;;;;;;;30.59;100.00;99286.25;1774904;80;21018;-60
2021/08/20 05:04:17;;;;;;;13.03;10.70;;;;;;;30.93;100.00;99288.19;1784200;78;21070;-59
2021/08/20 05:06:43;;;;;;;15.50;10.53;;;;;;;30.97;100.00;99298.48;1785381;78;21148;-59
2021/08/20 05:09:12;;;;;;;12.13;10.70;;;;;;;30.95;100.00;99295.34;1783228;78;20923;-59
2021/08/20 05:11:41;;;;;;;12.03;10.70;;;;;;;31.12;100.00;99300.44;1785621;78;21006;-59
2021/08/20 05:14:08;;;;;;;12.93;10.40;;;;;;;31.30;100.00;99299.61;1784226;80;20935;-59
2021/08/20 05:16:37;;;;;;;11.08;9.60;;;;;;;31.37;100.00;99306.53;1785468;80;21249;-59
2021/08/20 05:19:04;;;;;;;18.32;9.98;;;;;;;31.35;100.00;99318.77;1783262;79;21153;-59
2021/08/20 05:21:30;;;;;;;13.10;10.23;;;;;;;31.22;100.00;99313.98;1781518;80;21023;-59
2021/08/20 05:23:59;;;;;;;11.12;9.20;;;;;;;31.12;100.00;99307.17;1784759;80;21612;-59
2021/08/20 05:26:25;;;;;;;11.05;9.00;;;;;;;31.01;100.00;99310.91;1785042;78;21018;-59
2021/08/20 05:28:52;;;;;;;10.35;8.60;;;;;;;30.81;100.00;99305.73;1785676;80;21062;-59
2021/08/20 05:31:19;;;;;;;11.05;9.85;;;;;;;30.48;100.00;99312.05;1785435;78;21654;-58
2021/08/20 05:33:45;;;;;;;12.58;9.80;;;;;;;30.25;100.00;99306.36;1779282;80;20982;-60
2021/08/20 05:36:12;;;;;;;11.93;10.00;;;;;;;30.22;100.00;99318.56;1784538;80;21500;-59
2021/08/20 05:38:38;;;;;;;12.58;9.80;;;;;;;30.27;100.00;99322.95;1785021;80;21110;-59
2021/08/20 05:41:05;;;;;;;12.45;9.90;;;;;;;30.20;100.00;99331.58;1785685;80;20978;-60
2021/08/20 05:43:33;;;;;;;11.03;9.20;;;;;;;30.15;100.00;99330.97;1785414;78;21197;-60
2021/08/20 05:46:00;;;;;;;12.55;9.90;;;;;;;30.07;100.00;99335.34;1785743;80;20983;-58
2021/08/20 05:48:26;;;;;;;12.23;10.60;;;;;;;29.80;100.00;99340.23;1783803;78;21043;-59
2021/08/20 05:50:53;;;;;;;16.77;10.40;;;;;;;29.55;100.00;99342.08;1782882;80;22515;-59
2021/08/20 05:53:19;;;;;;;11.40;8.90;;;;;;;29.36;100.00;99340.45;1784117;78;21039;-59
2021/08/20 05:55:46;;;;;;;13.13;10.50;;;;;;;29.36;100.00;99340.45;1784962;80;21087;-59
2021/08/20 05:58:13;;;;;;;12.88;9.60;;;;;;;29.46;100.00;99335.98;1781649;80;21023;-59
2021/08/20 06:00:39;;;;;;;14.38;10.48;;;;;;;29.68;100.00;99334.07;1783693;80;22181;-60
2021/08/20 06:03:07;;;;;;;11.15;9.95;;;;;;;30.06;100.00;99339.15;1765333;80;20928;-59
2021/08/20 06:05:34;;;;;;;13.45;10.80;;;;;;;30.27;100.00;99337.73;1759881;80;21454;-58
2021/08/20 06:08:01;;;;;;;12.78;10.32;;;;;;;30.43;100.00;99340.52;1759728;80;21039;-59
2021/08/20 06:10:27;;;;;;;15.00;10.30;;;;;;;30.58;100.00;99341.73;1757748;80;21050;-60
2021/08/20 06:12:55;;;;;;;13.68;10.63;;;;;;;30.62;100.00;99349.34;1759361;80;20917;-62
2021/08/20 06:15:22;;;;;;;12.98;11.05;;;;;;;30.56;100.00;99348.78;1758984;80;20944;-61
2021/08/20 06:17:48;;;;;;;13.22;10.28;;;;;;;30.36;100.00;99354.53;1759909;80;21005;-59
2021/08/20 06:20:16;;;;;;;13.00;11.05;;;;;;;29.99;100.00;99353.70;1758735;80;20945;-61
2021/08/20 06:22:44;;;;;;;15.55;11.95;;;;;;;29.53;100.00;99356.94;1758499;80;21047;-58
2021/08/20 06:25:11;;;;;;;13.15;11.20;;;;;;;28.55;100.00;99353.73;1762009;80;21155;-61
2021/08/20 06:27:38;;;;;;;14.07;11.40;;;;;;;28.07;100.00;99357.56;1761034;80;21072;-61
2021/08/20 06:30:06;;;;;;;15.80;12.45;;;;;;;28.07;100.00;99357.56;1759219;80;21087;-61
2021/08/20 06:32:32;;;;;;;13.85;12.45;;;;;;;27.70;100.00;99354.52;1761615;80;22303;-60
2021/08/20 06:35:01;;;;;;;12.93;11.55;;;;;;;27.35;100.00;99360.45;1766086;79;21031;-60
2021/08/20 06:37:27;;;;;;;14.55;12.60;;;;;;;27.00;100.00;99355.64;1762618;80;21030;-61
2021/08/20 06:39:54;;;;;;;20.70;13.40;;;;;;;26.76;100.00;99357.44;1761429;80;20997;-59
2021/08/20 06:42:21;;;;;;;18.37;13.10;;;;;;;26.56;100.00;99358.81;1757900;80;20992;-60
2021/08/20 06:44:49;;;;;;;17.98;12.13;;;;;;;26.39;100.00;99366.97;1760675;80;21157;-61
2021/08/20 06:47:16;;;;;;;19.53;12.50;;;;;;;26.25;100.00;99368.17;1762045;80;21084;-59
2021/08/20 06:49:42;;;;;;;16.37;12.88;;;;;;;26.07;100.00;99380.14;1760013;80;20993;-60
2021/08/20 06:52:09;;;;;;;15.47;12.27;;;;;;;25.95;100.00;99382.05;1760331;80;20999;-59
2021/08/20 06:54:36;;;;;;;15.53;12.80;;;;;;;25.77;100.00;99382.22;1757661;80;20988;-61
2021/08/20 06:57:03;;;;;;;18.73;12.40;;;;;;;25.60;100.00;99384.22;1761804;80;21187;-61
2021/08/20 06:59:30;;;;;;;16.53;12.70;;;;;;;25.44;100.00;99382.47;1760184;80;21055;-60
2021/08/20 07:01:56;;;;;;;15.43;12.53;;;;;;;25.36;100.00;99383.19;1760791;80;21051;-61
2021/08/20 07:04:23;;;;;;;16.90;12.73;;;;;;;25.23;100.00;99387.50;1759843;80;20960;-61
2021/08/20 07:06:52;;;;;;;15.87;12.53;;;;;;;25.09;100.00;99384.83;1760067;80;21098;-59
2021/08/20 07:09:18;;;;;;;16.33;12.43;;;;;;;24.97;100.00;99384.02;1761108;80;21165;-59
2021/08/20 07:11:46;;;;;;;13.43;12.03;;;;;;;24.90;100.00;99399.63;1763969;80;21317;-60
2021/08/20 07:14:13;;;;;;;15.07;12.17;;;;;;;24.90;100.00;99407.63;1762899;80;20928;-60
2021/08/20 07:16:40;;;;;;;19.17;13.83;;;;;;;24.91;100.00;99414.53;1759933;80;21102;-60
2021/08/20 07:19:06;;;;;;;15.53;12.77;;;;;;;24.87;100.00;99414.87;1761637;80;21082;-60
2021/08/20 07:21:33;;;;;;;18.87;13.17;;;;;;;24.90;100.00;99419.63;1760893;80;21806;-60
2021/08/20 07:23:59;;;;;;;20.27;11.83;;;;;;;24.81;100.00;99416.06;1759739;80;21564;-60
2021/08/20 07:26:26;;;;;;;17.83;13.40;;;;;;;24.73;100.00;99422.09;1759846;80;21052;-61
2021/08/20 07:28:53;;;;;;;18.83;12.97;;;;;;;24.67;100.00;99428.63;1761657;80;21552;-60
2021/08/20 07:31:20;;;;;;;15.80;12.83;;;;;;;24.58;100.00;99431.17;1763763;80;21149;-59
2021/08/20 07:33:47;;;;;;;18.80;13.03;;;;;;;24.53;100.00;99441.15;1761231;80;21862;-60
2021/08/20 07:36:13;;;;;;;20.83;15.37;;;;;;;24.39;100.00;99433.92;1763752;80;21106;-61
2021/08/20 07:38:40;;;;;;;18.43;15.70;;;;;;;24.25;100.00;99440.55;1761260;80;20889;-60
2021/08/20 07:41:06;;;;;;;20.53;16.73;;;;;;;24.14;100.00;99444.47;1759728;80;20945;-61
2021/08/20 07:43:32;;;;;;;20.03;15.93;;;;;;;24.02;100.00;99458.79;1759139;80;22269;-62
2021/08/20 07:45:59;;;;;;;21.57;16.10;;;;;;;24.01;100.00;99464.63;1756107;80;21148;-63
2021/08/20 07:48:28;;;;;;;21.87;17.30;;;;;;;23.87;100.00;99456.38;1757675;79;21077;-62
2021/08/20 07:50:54;;;;;;;24.20;18.50;;;;;;;23.78;100.00;99462.88;1780037;79;21371;-63
2021/08/20 07:53:21;;;;;;;23.40;17.00;;;;;;;23.66;100.00;99477.14;1781663;79;21486;-66
2021/08/20 07:55:48;;;;;;;24.07;18.53;;;;;;;23.55;100.00;99487.92;1779873;79;22245;-63
2021/08/20 07:58:14;;;;;;;18.67;14.37;;;;;;;23.54;100.00;99495.66;1786695;79;21125;-70
2021/08/20 08:00:41;;;;;;;18.13;14.77;;;;;;;23.49;100.00;99499.72;1779199;79;21608;-71
2021/08/20 08:03:08;;;;;;;17.57;14.67;;;;;;;23.46;100.00;99502.16;1791155;79;20988;-68
2021/08/20 08:05:34;;;;;;;17.07;15.13;;;;;;;23.42;100.00;99513.13;1794782;79;20978;-71
2021/08/20 08:08:01;;;;;;;18.93;14.33;;;;;;;23.39;100.00;99499.85;1787654;79;20970;-65
2021/08/20 08:10:28;;;;;;;18.00;14.63;;;;;;;23.38;100.00;99491.63;1743536;81;21132;-72
2021/08/20 08:12:55;;;;;;;17.00;14.33;;;;;;;23.40;100.00;99490.78;1738930;81;21036;-71
2021/08/20 08:15:22;;;;;;;17.63;14.00;;;;;;;23.42;100.00;99497.95;1792990;79;20924;-65
2021/08/20 08:17:50;;;;;;;19.17;14.40;;;;;;;23.36;100.00;99504.95;1745491;81;21051;-70
2021/08/20 08:20:17;;;;;;;18.13;14.40;;;;;;;23.35;100.00;99501.50;1789181;79;20880;-64
2021/08/20 08:22:44;;;;;;;20.13;15.93;;;;;;;23.31;100.00;99497.30;1785607;79;21047;-67
2021/08/20 08:25:12;;;;;;;19.10;16.13;;;;;;;23.39;100.00;99500.39;1761997;79;21070;-67
2021/08/20 08:27:56;;;;;;;18.03;16.13;;;;;;;23.36;100.00;99503.62;1794842;79;21029;-66
2021/08/20 08:30:26;;;;;;;18.40;15.77;;;;;;;23.30;100.00;99505.02;1784986;79;21027;-66
2021/08/20 08:32:53;;;;;;;20.93;14.00;;;;;;;23.34;100.00;99504.46;1785628;79;22384;-67
2021/08/20 08:35:20;;;;;;;16.73;14.50;;;;;;;23.33;100.00;99498.86;1796765;79;21098;-66
2021/08/20 08:37:47;;;;;;;18.13;15.50;;;;;;;23.44;100.00;99489.13;1792661;79;20905;-65
2021/08/20 08:40:13;;;;;;;18.40;15.90;;;;;;;23.54;100.00;99488.22;1791288;79;21128;-65
2021/08/20 08:42:40;;;;;;;17.67;14.70;;;;;;;23.66;100.00;99481.13;1791352;79;21055;-64
2021/08/20 08:45:07;;;;;;;18.27;14.47;;;;;;;23.82;100.00;99484.38;1787962;79;21078;-65
2021/08/20 08:47:35;;;;;;;15.70;14.10;;;;;;;23.75;100.00;99484.23;1790746;79;21125;-65
2021/08/20 08:50:04;;;;;;;15.97;12.63;;;;;;;23.78;100.00;99482.84;1786564;79;20998;-65
2021/08/20 08:52:32;;;;;;;18.33;14.13;;;;;;;23.82;100.00;99479.06;1790416;79;21719;-64
2021/08/20 08:55:04;;;;;;;15.60;13.57;;;;;;;23.88;100.00;99466.72;1781173;78;21580;-65
2021/08/20 08:57:32;;;;;;;17.87;13.93;;;;;;;23.95;100.00;99461.82;1771803;80;21157;-65
2021/08/20 08:59:59;;;;;;;17.20;12.77;;;;;;;23.96;100.00;99466.05;1770550;80;39029;-64
2021/08/20 09:02:26;;;;;;;15.03;12.70;;;;;;;24.13;100.00;99459.39;1769400;80;21000;-64
2021/08/20 09:04:59;;;;;;;15.57;12.80;;;;;;;24.15;100.00;99455.36;1760341;80;21027;-65
2021/08/20 09:07:27;;;;;;;15.20;12.77;;;;;;;24.22;100.00;99447.00;1757923;80;21350;-68
2021/08/20 09:10:09;;;;;;;16.00;13.17;;;;;;;24.32;100.00;99446.83;1761494;80;21023;-66
2021/08/20 09:12:36;;;;;;;;;;;;;;;24.38;100.00;99438.98;1755588;80;22117;-69
2021/08/20 09:15:03;;;;;;;16.00;13.00;;;;;;;24.40;100.00;99433.41;1760973;80;20386;-68
2021/08/20 09:17:35;;;;;;;16.60;13.30;;;;;;;24.44;100.00;99433.84;1759244;80;21352;-69
2021/08/20 09:20:28;;;;;;;18.03;15.20;;;;;;;24.57;100.00;99441.59;1760259;80;20989;-64
2021/08/20 09:23:00;;;;;;;23.20;20.77;;;;;;;24.75;100.00;99444.70;1757282;80;20948;-71
2021/08/20 09:25:43;;;;;;;16.83;13.90;;;;;;;24.99;100.00;99446.36;1760791;80;21558;-61
2021/08/20 09:28:32;;;;;;;15.23;13.63;;;;;;;25.20;100.00;99442.77;1759322;80;20972;-61
2021/08/20 09:31:13;;;;;;;16.02;13.70;;;;;;;25.41;100.00;99444.43;1761739;80;21495;-72
2021/08/20 09:33:48;;;;;;;16.97;14.40;;;;;;;25.68;100.00;99453.70;1761990;80;21107;-62
2021/08/20 09:36:20;;;;;;;14.73;13.27;;;;;;;25.91;100.00;99454.52;1760972;80;21161;-74
2021/08/20 09:38:54;;;;;;;14.77;13.27;;;;;;;26.28;100.00;99457.84;1760513;80;21142;-71
2021/08/20 09:41:41;;;;;;;14.00;12.68;;;;;;;26.61;100.00;99457.56;1759906;80;20914;-71
2021/08/20 09:44:07;;;;;;;13.90;12.50;;;;;;;26.98;100.00;99458.16;1762862;80;21083;-71
2021/08/20 09:46:55;;;;;;;17.00;13.35;;;;;;;27.31;100.00;99467.34;1759821;80;21027;-59
2021/08/20 09:49:20;;;;;;;13.18;11.83;;;;;;;27.59;100.00;99476.42;1760988;80;21372;-69
2021/08/20 09:51:50;;;;;;;15.63;13.40;;;;;;;28.17;100.00;99486.39;1760030;80;21133;-66
2021/08/20 09:54:22;;;;;;;14.68;13.18;;;;;;;28.83;100.00;99492.97;1761287;80;20893;-61
2021/08/20 09:56:48;;;;;;;18.23;14.35;;;;;;;29.49;100.00;99484.92;1761523;80;22430;-64
2021/08/20 09:59:15;;;;;;;14.90;12.95;;;;;;;29.91;100.00;99485.69;1760639;80;21138;-64
2021/08/20 10:01:47;;;;;;;14.10;12.50;;;;;;;30.09;100.00;99490.34;1759970;80;21007;-65
2021/08/20 10:04:16;;;;;;;13.98;12.45;;;;;;;30.18;100.00;99494.30;1764861;80;21117;-64
2021/08/20 10:06:48;;;;;;;16.85;12.23;;;;;;;30.18;100.00;99496.43;1767762;80;21493;-63
2021/08/20 10:09:20;;;;;;;12.95;11.22;;;;;;;30.30;100.00;99501.05;1768241;80;22169;-64
2021/08/20 10:11:50;;;;;;;12.93;11.57;;;;;;;30.30;100.00;99501.05;1771102;80;20933;-59
2021/08/20 10:14:19;;;;;;;14.28;11.18;;;;;;;30.41;100.00;99504.87;1768335;80;21042;-62
2021/08/20 10:16:47;;;;;;;13.98;11.78;;;;;;;30.59;100.00;99504.13;1769231;80;21114;-61
2021/08/20 10:19:14;;;;;;;12.70;10.48;;;;;;;30.94;100.00;99499.66;1769428;80;20959;-61
2021/08/20 10:21:42;;;;;;;13.58;11.25;;;;;;;31.22;100.00;99511.31;1768254;80;20960;-61
2021/08/20 10:24:11;;;;;;;12.07;10.88;;;;;;;31.30;100.00;99504.79;1767460;80;21445;-61
2021/08/20 10:26:42;;;;;;;11.63;10.43;;;;;;;31.65;100.00;99503.14;1769562;80;20944;-58
2021/08/20 10:29:08;;;;;;;13.20;10.38;;;;;;;32.05;100.00;99500.98;1766860;80;21127;-60
2021/08/20 10:31:35;;;;;;;13.60;10.78;;;;;;;32.01;100.00;99502.77;1770057;80;20995;-60
2021/08/20 10:34:41;;;;;;;10.82;9.45;;;;;;;31.95;100.00;99497.44;1768985;80;21142;-61
2021/08/20 10:37:18;;;;;;;14.03;10.35;;;;;;;31.89;100.00;99509.58;1770661;79;21489;-59
2021/08/20 10:39:47;;;;;;;10.75;9.30;;;;;;;31.81;100.00;99509.92;1767833;80;21072;-60
2021/08/20 10:42:40;;;;;;;10.98;9.00;;;;;;;31.87;100.00;99505.89;1770822;79;20932;-60
2021/08/20 10:45:09;;;;;;;10.63;9.53;;;;;;;32.18;100.00;99506.52;1769175;80;20939;-59
2021/08/20 10:47:36;;;;;;;12.88;9.95;;;;;;;32.34;100.00;99508.44;1767202;80;20960;-63
2021/08/20 10:50:12;;;;;;;13.10;10.00;;;;;;;32.38;100.00;99516.05;1735696;80;20935;-60
2021/08/20 10:52:45;;;;;;;10.28;9.18;;;;;;;32.58;100.00;99516.95;1766517;80;20904;-58
2021/08/20 10:55:29;;;;;;;10.50;8.98;;;;;;;32.80;95.75;99524.43;1768780;80;21122;-61
2021/08/20 10:58:00;;;;;;;9.93;8.65;;;;;;;32.94;88.48;99517.27;1771658;80;21080;-60
2021/08/20 11:00:32;;;;;;;8.78;7.85;;;;;;;33.09;78.15;99511.63;1767310;80;21495;-59
2021/08/20 11:03:01;;;;;;;9.48;7.78;;;;;;;33.25;66.66;99506.95;1769438;80;21074;-59
2021/08/20 11:05:48;;;;;;;9.03;7.47;;;;;;;33.28;67.96;99502.77;1762633;80;21492;-59
2021/08/20 11:08:33;;;;;;;10.78;8.60;;;;;;;33.26;66.09;99496.36;1761259;79;21122;-59
2021/08/20 11:11:02;;;;;;;8.28;7.15;;;;;;;33.08;65.16;99488.46;1761642;80;21552;-59
2021/08/20 11:13:30;;;;;;;8.05;7.00;;;;;;;33.10;62.45;99482.91;1762070;80;21618;-59
2021/08/20 11:15:56;;;;;;;9.70;7.90;;;;;;;33.32;58.13;99476.05;1761463;80;21093;-60
2021/08/20 11:18:45;;;;;;;9.10;8.00;;;;;;;33.63;59.89;99468.38;1757549;80;21006;-60
2021/08/20 11:21:41;;;;;;;10.38;8.43;;;;;;;33.92;63.90;99470.85;1758440;79;21108;-59